Time;durP1;ratioP1;P1;durP2;ratioP2;P2;SDS_P1;SDS_P2;PMS_P1;PMS_P2;Temp;Humidity;BMP_temperature;BMP_pressure;BME280_temperature;BME280_humidity;BME280_pressure;Samples;Min_cycle;Max_cycle;Signal;HPM_P1;HPM_P2
2021/04/11 00:00:41;;;;;;;14.55;7.68;;;;;;;9.53;47.20;100758.19;5043236;28;20107;-71
2021/04/11 00:03:11;;;;;;;16.48;7.88;;;;;;;9.50;47.68;100761.09;5040881;28;20307;-71
2021/04/11 00:05:38;;;;;;;15.15;7.75;;;;;;;9.51;47.45;100765.44;5042992;28;20045;-70
2021/04/11 00:08:06;;;;;;;16.55;8.13;;;;;;;9.45;47.93;100767.75;5040111;28;20060;-70
2021/04/11 00:10:35;;;;;;;20.27;8.52;;;;;;;9.38;47.66;100769.25;5042907;28;20064;-70
2021/04/11 00:13:04;;;;;;;15.13;7.25;;;;;;;9.37;48.69;100764.91;5040541;28;20045;-70
2021/04/11 00:15:31;;;;;;;13.82;7.05;;;;;;;9.16;49.05;100734.00;5039134;28;20320;-70
2021/04/11 00:17:56;;;;;;;15.18;7.35;;;;;;;9.31;48.71;100765.41;5023911;28;20069;-71
2021/04/11 00:20:22;;;;;;;16.65;7.50;;;;;;;9.31;49.37;100773.34;5024331;28;20037;-71
2021/04/11 00:22:48;;;;;;;14.48;7.60;;;;;;;9.20;49.44;100774.22;5022317;28;20042;-71
2021/04/11 00:25:21;;;;;;;14.38;7.75;;;;;;;9.21;48.65;100767.97;5024294;28;20098;-71
2021/04/11 00:27:47;;;;;;;16.88;8.82;;;;;;;9.12;49.97;100772.22;5022807;28;20361;-70
2021/04/11 00:30:18;;;;;;;18.88;9.48;;;;;;;9.09;49.70;100782.22;5037661;28;20044;-70
2021/04/11 00:32:44;;;;;;;18.77;8.23;;;;;;;9.01;50.95;100774.94;5042411;28;20338;-70
2021/04/11 00:35:11;;;;;;;18.27;8.60;;;;;;;8.90;50.68;100775.81;5027567;28;20076;-70
2021/04/11 00:37:36;;;;;;;76.50;20.27;;;;;;;8.87;50.20;100781.34;5022716;28;20106;-70
2021/04/11 00:40:07;;;;;;;30.40;11.88;;;;;;;8.94;49.74;100776.41;5022968;28;20317;-70
2021/04/11 00:42:38;;;;;;;46.95;17.50;;;;;;;8.94;49.82;100777.22;5040093;28;20052;-70
2021/04/11 00:45:23;;;;;;;52.67;20.83;;;;;;;8.71;50.76;100775.63;5038155;28;20029;-71
2021/04/11 00:47:50;;;;;;;34.63;15.85;;;;;;;8.62;50.94;100784.31;5037867;28;20361;-70
2021/04/11 00:50:16;;;;;;;35.58;16.75;;;;;;;8.63;50.35;100778.06;5039705;28;20040;-71
2021/04/11 00:52:44;;;;;;;36.17;17.58;;;;;;;8.76;50.49;100780.53;5023483;28;20041;-71
2021/04/11 00:55:10;;;;;;;39.72;17.65;;;;;;;8.75;49.96;100771.78;5020874;28;20046;-70
2021/04/11 00:57:36;;;;;;;29.83;14.05;;;;;;;8.81;50.18;100781.00;5024714;28;20215;-70
2021/04/11 01:00:04;;;;;;;27.48;12.63;;;;;;;8.93;49.25;100780.00;5023259;28;20092;-70
2021/04/11 01:02:29;;;;;;;29.15;13.27;;;;;;;8.92;49.40;100771.25;5028652;28;20029;-70
2021/04/11 01:04:54;;;;;;;27.45;13.02;;;;;;;8.72;50.30;100777.31;5035755;28;20092;-71
2021/04/11 01:07:21;;;;;;;31.60;14.60;;;;;;;8.52;51.20;100784.22;5022486;28;20048;-71
2021/04/11 01:09:48;;;;;;;31.83;14.23;;;;;;;8.44;51.31;100775.22;5024050;28;20203;-71
2021/04/11 01:12:21;;;;;;;30.17;14.18;;;;;;;8.53;50.71;100772.69;5041976;28;20079;-71
2021/04/11 01:14:48;;;;;;;24.35;11.98;;;;;;;8.49;50.48;100768.63;5039479;28;20040;-71
2021/04/11 01:17:17;;;;;;;27.90;12.68;;;;;;;8.39;51.05;100770.31;5036965;28;20068;-70
2021/04/11 01:19:44;;;;;;;27.08;12.80;;;;;;;8.31;51.93;100760.31;5029054;28;20060;-70
2021/04/11 01:22:28;;;;;;;23.35;11.98;;;;;;;8.29;51.77;100764.03;5022353;28;20304;-70
2021/04/11 01:24:56;;;;;;;26.67;10.70;;;;;;;8.36;51.56;100764.44;5022648;28;20316;-70
2021/04/11 01:27:28;;;;;;;23.08;11.23;;;;;;;8.29;51.25;100772.78;5022310;28;20352;-71
2021/04/11 01:29:54;;;;;;;20.92;8.52;;;;;;;8.00;53.73;100775.09;5032541;28;20033;-70
2021/04/11 01:32:21;;;;;;;26.95;10.13;;;;;;;8.02;53.49;100778.47;5042194;28;20037;-71
2021/04/11 01:34:47;;;;;;;24.27;10.82;;;;;;;8.06;53.74;100768.50;5039438;28;20029;-71
2021/04/11 01:37:15;;;;;;;29.27;12.38;;;;;;;8.08;52.51;100769.22;5041469;28;20083;-71
2021/04/11 01:39:43;;;;;;;28.88;12.32;;;;;;;8.12;53.06;100767.19;5041124;28;20041;-71
2021/04/11 01:42:10;;;;;;;24.60;10.98;;;;;;;8.24;52.47;100763.56;5039800;28;20271;-70
2021/04/11 01:44:39;;;;;;;22.20;11.63;;;;;;;8.32;51.75;100755.88;5041750;28;20056;-70
2021/04/11 01:47:06;;;;;;;22.92;10.50;;;;;;;8.36;51.85;100764.44;5037302;28;20049;-70
2021/04/11 01:49:31;;;;;;;18.08;9.43;;;;;;;8.33;50.83;100760.25;5022928;28;20306;-71
2021/04/11 01:52:07;;;;;;;18.35;10.38;;;;;;;8.23;50.79;100767.16;5020666;28;20056;-71
2021/04/11 01:54:35;;;;;;;20.50;10.20;;;;;;;8.20;51.51;100772.69;5025750;28;20376;-71
2021/04/11 01:57:22;;;;;;;23.23;10.15;;;;;;;8.13;52.34;100777.63;5024584;28;20040;-70
2021/04/11 01:59:49;;;;;;;15.13;8.02;;;;;;;7.93;52.32;100771.28;5026452;28;20036;-70
2021/04/11 02:02:15;;;;;;;15.55;8.75;;;;;;;7.61;53.42;100768.50;5029145;28;20045;-69
2021/04/11 02:04:41;;;;;;;19.15;9.68;;;;;;;7.73;53.36;100771.16;5045236;28;20025;-70
2021/04/11 02:07:09;;;;;;;16.33;8.80;;;;;;;7.76;53.55;100774.38;5042995;28;20410;-70
2021/04/11 02:09:38;;;;;;;17.88;9.30;;;;;;;7.89;52.65;100775.09;5041299;28;20033;-70
2021/04/11 02:12:06;;;;;;;15.32;8.80;;;;;;;7.89;52.92;100774.25;5042795;28;20022;-70
2021/04/11 02:14:33;;;;;;;16.40;8.52;;;;;;;7.83;52.90;100774.75;5043180;28;20033;-71
2021/04/11 02:16:59;;;;;;;14.90;7.97;;;;;;;7.75;53.77;100774.50;5043082;28;20037;-71
2021/04/11 02:19:28;;;;;;;16.10;8.82;;;;;;;7.75;53.18;100777.13;5043744;28;20029;-71
2021/04/11 02:22:13;;;;;;;17.15;8.57;;;;;;;7.75;53.52;100788.53;5048439;28;20326;-70
2021/04/11 02:24:45;;;;;;;14.45;7.72;;;;;;;7.64;53.28;100783.22;5060007;28;20091;-70
2021/04/11 02:27:14;;;;;;;23.25;10.07;;;;;;;7.55;52.75;100784.78;5049861;28;20179;-70
2021/04/11 02:29:39;;;;;;;115.95;33.33;;;;;;;7.57;53.20;100780.22;5043229;28;20025;-70
2021/04/11 02:32:05;;;;;;;27.80;11.57;;;;;;;7.69;52.36;100779.28;5042994;28;20041;-70
2021/04/11 02:34:32;;;;;;;37.53;15.55;;;;;;;7.69;52.77;100783.72;5044201;28;20037;-69
2021/04/11 02:37:03;;;;;;;22.50;8.15;;;;;;;7.36;53.68;100792.41;5039830;28;20045;-69
2021/04/11 02:39:31;;;;;;;24.92;8.75;;;;;;;7.10;54.05;100788.22;5025361;28;20029;-70
2021/04/11 02:42:00;;;;;;;32.33;18.10;;;;;;;6.88;55.39;100796.88;5025949;28;20254;-70
2021/04/11 02:44:26;;;;;;;48.22;28.63;;;;;;;6.70;55.48;100794.63;5027350;28;20374;-70
2021/04/11 02:46:52;;;;;;;35.42;19.98;;;;;;;7.02;54.74;100796.69;5041107;28;20025;-69
2021/04/11 02:49:20;;;;;;;22.02;10.30;;;;;;;6.91;55.29;100800.13;5025789;28;20038;-70
2021/04/11 02:51:46;;;;;;;15.20;7.55;;;;;;;6.84;55.23;100796.25;5023830;28;20045;-70
2021/04/11 02:54:15;;;;;;;17.25;8.15;;;;;;;6.89;55.61;100803.81;5042266;28;20029;-70
2021/04/11 02:56:42;;;;;;;19.50;8.15;;;;;;;6.92;55.53;100798.31;5042735;28;20207;-70
2021/04/11 02:59:09;;;;;;;22.88;8.75;;;;;;;6.67;56.01;100800.13;5044280;28;20099;-70
2021/04/11 03:01:39;;;;;;;16.15;8.05;;;;;;;6.94;54.70;100805.16;5043612;28;20331;-70
2021/04/11 03:04:05;;;;;;;18.98;8.32;;;;;;;6.92;54.52;100800.97;5042827;28;20346;-70
2021/04/11 03:06:35;;;;;;;21.77;8.60;;;;;;;7.22;53.71;100803.09;5043564;28;20040;-70
2021/04/11 03:09:09;;;;;;;21.27;10.18;;;;;;;7.21;54.46;100806.69;5026074;28;20038;-70
2021/04/11 03:11:37;;;;;;;;;;;;;;;7.53;52.63;100807.78;5026279;28;20311;-70
2021/04/11 03:14:06;;;;;;;16.02;7.75;;;;;;;7.53;53.00;100810.41;5022833;28;19956;-70
2021/04/11 03:16:37;;;;;;;44.42;14.85;;;;;;;7.22;53.61;100814.50;5040458;28;20338;-70
2021/04/11 03:19:03;;;;;;;23.80;11.43;;;;;;;7.17;53.99;100823.69;5027203;28;20033;-70
2021/04/11 03:21:28;;;;;;;44.53;19.98;;;;;;;7.19;53.72;100822.63;5023489;28;20041;-70
2021/04/11 03:23:54;;;;;;;42.20;22.35;;;;;;;7.15;53.29;100828.22;5023926;28;20045;-70
2021/04/11 03:26:31;;;;;;;32.92;15.00;;;;;;;7.05;53.68;100823.66;5028048;28;20104;-71
2021/04/11 03:29:08;;;;;;;36.65;16.00;;;;;;;6.85;54.90;100833.97;5043594;28;20107;-71
2021/04/11 03:31:39;;;;;;;45.35;18.00;;;;;;;6.77;55.11;100831.88;5027043;28;20071;-71
2021/04/11 03:34:05;;;;;;;27.83;12.55;;;;;;;6.99;53.94;100836.41;5036003;28;20033;-70
2021/04/11 03:36:33;;;;;;;31.92;13.50;;;;;;;7.03;54.27;100843.97;5043481;28;20252;-70
2021/04/11 03:39:01;;;;;;;25.15;11.77;;;;;;;7.25;53.13;100850.31;5041144;28;20034;-71
2021/04/11 03:41:32;;;;;;;26.40;10.15;;;;;;;7.26;52.98;100852.81;5042111;28;20060;-71
2021/04/11 03:44:00;;;;;;;18.83;8.35;;;;;;;7.33;53.03;100861.13;5040499;28;20059;-71
2021/04/11 03:46:38;;;;;;;20.95;9.05;;;;;;;7.39;52.96;100855.41;5039784;28;20029;-71
2021/04/11 03:49:06;;;;;;;20.27;9.23;;;;;;;7.46;52.63;100853.16;5038247;28;20092;-70
2021/04/11 03:51:36;;;;;;;21.08;8.48;;;;;;;7.43;52.49;100846.31;5024149;28;20041;-70
2021/04/11 03:54:16;;;;;;;96.13;20.88;;;;;;;7.48;52.09;100843.34;5036602;28;20310;-69
2021/04/11 03:56:45;;;;;;;92.95;20.95;;;;;;;7.52;51.55;100844.78;5043216;28;20037;-69
2021/04/11 03:59:17;;;;;;;34.47;14.15;;;;;;;7.39;52.00;100844.03;5039550;28;20025;-71
2021/04/11 04:01:48;;;;;;;31.17;12.73;;;;;;;7.33;52.78;100840.06;5030996;28;20049;-71
2021/04/11 04:04:19;;;;;;;22.77;11.20;;;;;;;7.26;53.08;100852.81;5022771;28;20030;-70
2021/04/11 04:07:07;;;;;;;34.83;15.95;;;;;;;7.40;52.42;100853.63;5024066;28;20064;-69
2021/04/11 04:09:33;;;;;;;31.67;16.30;;;;;;;7.25;54.00;100856.41;5033167;28;20037;-70
2021/04/11 04:12:43;;;;;;;28.65;15.63;;;;;;;7.27;53.38;100854.50;5042787;28;20037;-70
2021/04/11 04:15:44;;;;;;;35.88;17.15;;;;;;;7.31;53.68;100857.78;4999588;28;20101;-69
2021/04/11 04:18:40;;;;;;;27.73;13.60;;;;;;;7.21;53.82;100859.38;5021676;28;20037;-69
2021/04/11 04:21:05;;;;;;;35.30;15.63;;;;;;;7.21;53.38;100854.97;5023385;28;20048;-69
2021/04/11 04:23:49;;;;;;;39.47;17.88;;;;;;;7.12;54.03;100866.16;5023534;28;20093;-71
2021/04/11 04:26:30;;;;;;;35.15;17.73;;;;;;;7.18;53.72;100872.78;5037677;28;20033;-70
2021/04/11 04:29:19;;;;;;;45.75;21.58;;;;;;;7.19;53.76;100872.66;5042243;28;20092;-71
2021/04/11 04:32:10;;;;;;;40.80;20.67;;;;;;;7.36;53.31;100872.28;5040874;28;20041;-71
2021/04/11 04:34:57;;;;;;;38.58;17.85;;;;;;;7.48;54.48;100872.34;5030732;28;20093;-71
2021/04/11 04:37:52;;;;;;;33.28;16.10;;;;;;;7.51;54.68;100874.75;5023964;28;20030;-69
2021/04/11 04:40:23;;;;;;;;;;;;;;;7.36;55.92;100882.84;5022118;28;20026;-70
2021/04/11 04:42:56;;;;;;;27.52;12.43;;;;;;;7.33;55.28;100879.59;5023839;28;20222;-70
2021/04/11 04:45:28;;;;;;;54.25;16.10;;;;;;;7.33;54.15;100879.59;5022195;28;20029;-71
2021/04/11 04:48:06;;;;;;;44.17;13.63;;;;;;;7.35;54.13;100881.16;5023250;28;20109;-70
2021/04/11 04:50:44;;;;;;;40.30;13.15;;;;;;;7.35;53.66;100886.41;5041442;28;20044;-71
2021/04/11 04:53:33;;;;;;;28.88;13.32;;;;;;;7.48;54.63;100888.16;5038849;28;20104;-71
2021/04/11 04:56:03;;;;;;;48.50;17.95;;;;;;;7.60;54.53;100888.06;5041783;28;20092;-71
2021/04/11 04:58:33;;;;;;;49.67;19.10;;;;;;;7.79;53.93;100879.59;5040070;28;20251;-70
2021/04/11 05:01:17;;;;;;;35.58;16.30;;;;;;;8.10;52.49;100880.72;5041028;28;20037;-70
2021/04/11 05:03:46;;;;;;;27.07;11.60;;;;;;;8.14;51.92;100886.63;5040367;28;20335;-70
2021/04/11 05:06:19;;;;;;;38.90;13.82;;;;;;;8.17;52.13;100892.50;5040494;28;20057;-70
2021/04/11 05:08:48;;;;;;;38.30;13.82;;;;;;;8.37;51.61;100892.81;5039282;28;20059;-70
2021/04/11 05:11:28;;;;;;;39.22;14.27;;;;;;;8.45;51.93;100903.59;5042231;28;20057;-70
2021/04/11 05:14:07;;;;;;;47.53;20.80;;;;;;;8.55;52.40;100902.75;5035861;28;20216;-70
2021/04/11 05:16:39;;;;;;;52.35;20.13;;;;;;;8.70;51.84;100903.34;5022938;28;20037;-70
2021/04/11 05:19:10;;;;;;;48.05;20.05;;;;;;;8.86;51.62;100903.81;5038090;28;20029;-70
2021/04/11 05:21:42;;;;;;;41.33;17.58;;;;;;;9.03;51.08;100897.16;5034866;28;20026;-70
2021/04/11 05:24:13;;;;;;;32.35;16.50;;;;;;;9.19;51.12;100900.25;5022384;28;20048;-69
2021/04/11 05:26:46;;;;;;;35.65;17.80;;;;;;;9.29;51.26;100903.81;5040192;28;20314;-70
2021/04/11 05:29:23;;;;;;;21.73;10.20;;;;;;;9.46;49.15;100905.09;5034801;28;20040;-69
2021/04/11 05:31:51;;;;;;;35.67;14.55;;;;;;;9.43;49.80;100904.50;5026635;28;20040;-70
2021/04/11 05:34:19;;;;;;;28.83;13.20;;;;;;;9.49;50.79;100904.84;5045569;28;20334;-70
2021/04/11 05:36:53;;;;;;;22.92;12.73;;;;;;;9.50;51.03;100903.03;5026281;28;20057;-70
2021/04/11 05:39:31;;;;;;;;;;;;;;;9.99;49.98;100896.28;5036020;28;20029;-70
2021/04/11 05:42:19;;;;;;;25.60;11.15;;;;;;;10.07;49.63;100896.47;5046001;28;19916;-71
2021/04/11 05:44:55;;;;;;;26.98;9.68;;;;;;;10.35;49.89;100902.91;5040984;28;20052;-71
2021/04/11 05:47:51;;;;;;;15.93;8.32;;;;;;;10.08;49.55;100900.78;5045848;28;20041;-71
2021/04/11 05:50:28;;;;;;;21.45;10.95;;;;;;;10.18;50.10;100904.31;5045286;28;20025;-71
2021/04/11 05:53:19;;;;;;;20.38;11.90;;;;;;;10.51;49.72;100912.06;5045397;28;20395;-70
2021/04/11 05:55:52;;;;;;;21.35;10.00;;;;;;;10.49;48.00;100907.88;5043057;28;20045;-70
2021/04/11 05:58:22;;;;;;;17.35;10.55;;;;;;;10.71;48.75;100912.16;5045212;28;20091;-70
2021/04/11 06:01:02;;;;;;;18.20;9.30;;;;;;;11.06;47.64;100906.38;5044836;28;20342;-71
2021/04/11 06:03:28;;;;;;;25.95;9.13;;;;;;;11.58;44.10;100905.19;5045228;28;20037;-71
2021/04/11 06:06:06;;;;;;;17.25;8.70;;;;;;;11.66;44.84;100902.66;5043107;28;20024;-70
2021/04/11 06:08:54;;;;;;;18.27;8.63;;;;;;;12.00;42.66;100902.22;5042716;28;20022;-70
2021/04/11 06:11:32;;;;;;;14.07;10.25;;;;;;;11.93;40.44;100903.78;5042936;28;20025;-70
2021/04/11 06:14:01;;;;;;;15.35;7.10;;;;;;;12.19;39.58;100911.97;5043607;28;20322;-70
2021/04/11 06:16:29;;;;;;;19.10;7.78;;;;;;;12.34;38.40;100907.88;5043972;28;20042;-71
2021/04/11 06:18:56;;;;;;;30.23;10.43;;;;;;;12.25;39.14;100906.06;5042805;28;20036;-71
2021/04/11 06:21:30;;;;;;;47.95;13.15;;;;;;;12.50;38.76;100901.97;5043692;28;20029;-71
2021/04/11 06:24:01;;;;;;;17.65;8.18;;;;;;;12.57;38.70;100903.06;5043949;28;20314;-71
2021/04/11 06:26:39;;;;;;;41.15;13.25;;;;;;;12.71;38.32;100894.59;5042754;28;20029;-71
2021/04/11 06:29:13;;;;;;;22.48;10.18;;;;;;;13.15;38.39;100892.94;5042076;28;20029;-71
2021/04/11 06:31:56;;;;;;;13.23;7.75;;;;;;;13.24;39.33;100897.38;5044099;28;20045;-70
2021/04/11 06:34:48;;;;;;;13.85;7.47;;;;;;;13.06;37.73;100896.47;5042328;28;20287;-70
2021/04/11 06:37:19;;;;;;;16.45;7.63;;;;;;;13.15;37.94;100889.44;5043633;28;20100;-70
2021/04/11 06:39:46;;;;;;;13.63;7.65;;;;;;;12.92;38.47;100904.97;5042933;28;20033;-70
2021/04/11 06:42:50;;;;;;;19.13;7.60;;;;;;;12.61;38.92;100909.75;5043949;28;20093;-69
2021/04/11 06:45:31;;;;;;;23.73;8.05;;;;;;;12.72;38.18;100915.72;4999227;28;20358;-70
2021/04/11 06:48:11;;;;;;;15.00;7.28;;;;;;;13.14;37.61;100912.53;5043848;28;20063;-70
2021/04/11 06:50:58;;;;;;;16.83;7.93;;;;;;;13.68;38.03;100905.44;5042171;28;20915;-70
2021/04/11 06:53:47;;;;;;;13.10;7.68;;;;;;;13.87;37.70;100904.44;5043330;28;20041;-71
2021/04/11 06:56:34;;;;;;;28.60;9.73;;;;;;;13.83;37.69;100909.22;5043359;28;20262;-71
2021/04/11 06:59:27;;;;;;;14.32;8.23;;;;;;;13.99;36.70;100912.00;5061094;28;20372;-70
2021/04/11 07:02:02;;;;;;;14.82;7.95;;;;;;;13.90;37.38;100915.59;5044300;28;20033;-70
2021/04/11 07:04:52;;;;;;;15.25;7.70;;;;;;;13.96;38.38;100914.97;5043069;28;20045;-70
2021/04/11 07:07:35;;;;;;;13.40;8.20;;;;;;;13.95;37.47;100915.13;5041385;28;20111;-70
2021/04/11 07:10:13;;;;;;;14.82;7.20;;;;;;;14.50;36.21;100915.69;5041730;28;20100;-71
2021/04/11 07:13:17;;;;;;;15.70;7.88;;;;;;;14.75;36.14;100910.47;5043302;28;20052;-71
2021/04/11 07:16:03;;;;;;;14.32;7.25;;;;;;;14.99;34.95;100921.25;5041348;28;20101;-70
2021/04/11 07:18:41;;;;;;;14.13;7.80;;;;;;;15.01;35.59;100911.25;5042655;28;20045;-70
2021/04/11 07:21:15;;;;;;;13.20;8.05;;;;;;;14.92;35.62;100912.22;5042512;28;20037;-70
2021/04/11 07:24:19;;;;;;;12.40;7.07;;;;;;;14.09;37.20;100911.91;5042754;28;20329;-70
2021/04/11 07:27:11;;;;;;;13.65;7.25;;;;;;;13.58;36.17;100913.50;5042441;28;20033;-70
2021/04/11 07:29:53;;;;;;;20.63;6.55;;;;;;;13.37;37.82;100920.94;5041373;28;20096;-70
2021/04/11 07:32:40;;;;;;;12.80;6.75;;;;;;;13.32;37.52;100915.22;5042871;28;20128;-70
2021/04/11 07:35:29;;;;;;;12.38;7.55;;;;;;;13.41;38.06;100914.31;5041441;28;20099;-70
2021/04/11 07:38:10;;;;;;;13.70;7.38;;;;;;;13.52;36.91;100914.09;5042034;28;20113;-70
2021/04/11 07:40:44;;;;;;;14.18;6.68;;;;;;;13.90;36.44;100917.44;5042371;28;20033;-69
2021/04/11 07:43:45;;;;;;;11.82;6.25;;;;;;;14.30;35.57;100912.38;5042016;28;20049;-70
2021/04/11 07:46:29;;;;;;;22.42;7.10;;;;;;;14.67;35.11;100920.13;5042331;28;20078;-70
2021/04/11 07:49:14;;;;;;;14.77;6.78;;;;;;;14.92;34.65;100904.22;5042571;28;20305;-70
2021/04/11 07:52:04;;;;;;;13.23;7.38;;;;;;;14.90;34.31;100912.38;5042328;28;20033;-70
2021/04/11 07:55:00;;;;;;;12.63;6.82;;;;;;;14.95;33.29;100903.88;5042944;28;20349;-70
2021/04/11 07:57:40;;;;;;;12.48;7.07;;;;;;;15.29;32.58;100901.13;5043385;28;20043;-70
2021/04/11 08:00:18;;;;;;;15.05;7.47;;;;;;;15.32;33.27;100892.81;5042849;28;20272;-70
2021/04/11 08:03:06;;;;;;;12.18;7.40;;;;;;;14.15;35.36;100895.31;5043480;28;20219;-72
2021/04/11 08:05:44;;;;;;;12.25;7.18;;;;;;;14.06;35.31;100896.25;5030158;28;20057;-71
2021/04/11 08:08:28;;;;;;;13.82;7.43;;;;;;;14.05;36.40;100902.56;5042932;28;20310;-70
2021/04/11 08:11:11;;;;;;;14.07;7.65;;;;;;;14.19;36.04;100890.50;5042865;28;20095;-70
2021/04/11 08:14:01;;;;;;;13.37;7.60;;;;;;;14.35;35.54;100895.91;5041371;28;20051;-70
2021/04/11 08:16:39;;;;;;;14.75;7.68;;;;;;;13.91;37.76;100892.47;5042658;28;20490;-70
2021/04/11 08:19:36;;;;;;;11.10;6.72;;;;;;;13.66;37.27;100894.94;5029390;28;20048;-70
2021/04/11 08:22:27;;;;;;;12.70;7.43;;;;;;;14.33;36.84;100895.22;5041952;28;20052;-70
2021/04/11 08:25:01;;;;;;;12.20;7.28;;;;;;;14.64;35.90;100892.94;5012576;28;20276;-70
2021/04/11 08:27:27;;;;;;;11.23;6.95;;;;;;;15.17;35.41;100892.59;5039180;28;20318;-70
2021/04/11 08:30:20;;;;;;;12.52;7.97;;;;;;;14.75;35.42;100897.16;5038316;28;20032;-69
2021/04/11 08:33:07;;;;;;;15.50;7.57;;;;;;;14.29;37.35;100899.22;5037584;28;20033;-70
2021/04/11 08:35:39;;;;;;;12.68;7.15;;;;;;;14.63;37.65;100894.78;5038719;28;20035;-70
2021/04/11 08:38:23;;;;;;;12.70;7.38;;;;;;;14.75;36.28;100887.31;5038926;28;20033;-71
2021/04/11 08:40:54;;;;;;;14.43;7.20;;;;;;;15.27;35.28;100885.28;5038012;28;20049;-71
2021/04/11 08:44:07;;;;;;;15.70;8.00;;;;;;;15.59;34.65;100889.84;5040015;28;20033;-70
2021/04/11 08:46:57;;;;;;;12.43;7.43;;;;;;;14.28;36.14;100890.38;5024744;28;20045;-70
2021/04/11 08:49:25;;;;;;;11.80;6.80;;;;;;;14.26;37.52;100883.53;5037286;28;20081;-70
2021/04/11 08:52:02;;;;;;;11.65;7.30;;;;;;;14.41;37.20;100878.47;5038635;28;20044;-70
2021/04/11 08:55:04;;;;;;;15.38;6.55;;;;;;;14.67;37.31;100876.63;5038331;28;20178;-71
2021/04/11 08:57:37;;;;;;;16.95;7.07;;;;;;;14.26;38.06;100880.88;5038838;28;20041;-71
2021/04/11 09:00:19;;;;;;;10.82;6.57;;;;;;;14.17;37.84;100881.81;5038088;28;20040;-70
2021/04/11 09:03:03;;;;;;;8.85;6.32;;;;;;;14.02;38.86;100879.75;5039620;28;20029;-70
2021/04/11 09:05:34;;;;;;;11.27;6.40;;;;;;;14.20;38.50;100876.19;5037845;28;20026;-70
2021/04/11 09:08:09;;;;;;;13.75;7.28;;;;;;;14.61;38.09;100869.28;5036388;28;20038;-69
2021/04/11 09:11:11;;;;;;;13.63;6.57;;;;;;;14.99;36.42;100874.06;5039330;28;20262;-70
2021/04/11 09:14:20;;;;;;;10.07;6.00;;;;;;;15.13;36.14;100858.41;5037375;28;20376;-70
2021/04/11 09:17:30;;;;;;;9.57;6.20;;;;;;;15.22;36.44;100860.09;5037541;28;20048;-70
2021/04/11 09:20:22;;;;;;;10.93;6.60;;;;;;;15.06;36.02;100850.25;5038738;28;20042;-70
2021/04/11 09:23:06;;;;;;;13.82;6.20;;;;;;;15.11;37.22;100845.25;5040346;28;20044;-70
2021/04/11 09:25:34;;;;;;;12.75;5.85;;;;;;;15.23;36.24;100835.91;5036658;28;20037;-70
2021/04/11 09:28:05;;;;;;;10.63;6.28;;;;;;;15.12;37.44;100828.25;5037511;28;20033;-70
2021/04/11 09:31:21;;;;;;;15.75;7.20;;;;;;;15.28;36.89;100822.09;5040186;28;20029;-70
2021/04/11 09:34:09;;;;;;;13.60;6.40;;;;;;;15.15;37.21;100816.41;4978581;28;20304;-70
2021/04/11 09:36:57;;;;;;;10.82;6.47;;;;;;;15.00;36.96;100821.56;4997774;28;20057;-70
2021/04/11 09:39:31;;;;;;;13.63;6.25;;;;;;;15.04;36.94;100811.38;5038356;28;20022;-70
2021/04/11 09:42:21;;;;;;;10.32;6.10;;;;;;;15.13;38.40;100805.06;5039418;28;20050;-70
2021/04/11 09:45:01;;;;;;;16.23;6.55;;;;;;;15.37;37.63;100813.06;5037607;28;20372;-70
2021/04/11 09:47:58;;;;;;;15.30;6.57;;;;;;;15.64;36.88;100803.94;5036853;28;20065;-72
2021/04/11 09:50:38;;;;;;;12.13;6.63;;;;;;;15.50;37.07;100805.41;5038935;28;20028;-71
2021/04/11 09:53:42;;;;;;;8.95;6.05;;;;;;;15.64;37.51;100812.78;5043438;28;20109;-70
2021/04/11 09:56:30;;;;;;;10.13;5.50;;;;;;;15.34;39.35;100803.56;5037126;28;20046;-70
2021/04/11 09:59:30;;;;;;;13.80;5.97;;;;;;;14.87;38.85;100807.88;5037495;28;20025;-70
2021/04/11 10:02:35;;;;;;;14.80;5.68;;;;;;;14.69;38.72;100808.00;5039189;28;20029;-70
2021/04/11 10:05:19;;;;;;;10.70;5.45;;;;;;;14.87;39.46;100803.38;5006718;28;20058;-71
2021/04/11 10:08:00;;;;;;;10.88;5.50;;;;;;;14.86;38.77;100804.38;5037032;28;20037;-71
2021/04/11 10:10:54;;;;;;;13.55;6.03;;;;;;;15.20;38.46;100806.06;5039623;28;20025;-70
2021/04/11 10:13:31;;;;;;;12.32;5.72;;;;;;;15.13;38.48;100802.41;5038210;28;20033;-70
2021/04/11 10:16:19;;;;;;;11.52;5.93;;;;;;;14.72;39.25;100799.66;5042059;28;20346;-70
2021/04/11 10:19:12;;;;;;;9.07;5.13;;;;;;;14.42;39.61;100787.72;5042249;28;20159;-70
2021/04/11 10:22:08;;;;;;;11.70;5.28;;;;;;;14.74;39.34;100792.34;5041971;28;20044;-70
2021/04/11 10:25:06;;;;;;;6.60;3.83;;;;;;;14.64;39.17;100783.66;5040368;28;20045;-71
2021/04/11 10:27:42;;;;;;;9.45;4.70;;;;;;;14.83;39.13;100782.53;5041126;28;20037;-70
2021/04/11 10:30:12;;;;;;;7.43;4.15;;;;;;;14.70;38.98;100788.34;5042722;28;20140;-70
2021/04/11 10:32:51;;;;;;;8.30;4.10;;;;;;;14.94;38.69;100779.53;5045238;28;20040;-70
2021/04/11 10:35:24;;;;;;;8.30;4.78;;;;;;;14.95;37.81;100773.22;5044230;28;20030;-70
2021/04/11 10:37:52;;;;;;;6.53;4.18;;;;;;;15.09;37.55;100767.22;5042970;28;20030;-70
2021/04/11 10:40:30;;;;;;;12.38;4.63;;;;;;;15.21;38.21;100765.06;5041119;28;20029;-72
2021/04/11 10:43:25;;;;;;;7.88;3.60;;;;;;;15.50;39.17;100749.34;5040935;28;20599;-71
2021/04/11 10:45:51;;;;;;;;;;;;;;;15.46;37.39;100765.88;5041576;28;20029;-70
2021/04/11 10:48:48;;;;;;;6.72;3.97;;;;;;;15.16;37.36;100759.38;5040963;28;19917;-70
2021/04/11 10:51:26;;;;;;;8.10;4.18;;;;;;;14.98;37.71;100762.22;5040263;28;20040;-70
2021/04/11 10:54:15;;;;;;;12.65;4.25;;;;;;;15.25;38.92;100761.88;5041626;28;20346;-70
2021/04/11 10:57:15;;;;;;;8.80;4.28;;;;;;;14.90;38.05;100757.72;5039716;28;20041;-70
2021/04/11 10:59:58;;;;;;;11.23;4.40;;;;;;;14.84;37.85;100753.03;5041223;28;20346;-69
2021/04/11 11:02:42;;;;;;;7.57;4.35;;;;;;;14.77;38.45;100762.69;5041758;28;20100;-70
2021/04/11 11:05:20;;;;;;;7.03;3.78;;;;;;;14.95;38.56;100757.22;5040913;28;20222;-70
2021/04/11 11:07:55;;;;;;;8.27;4.32;;;;;;;15.09;37.64;100745.88;5039850;28;20111;-70
2021/04/11 11:10:53;;;;;;;6.45;3.55;;;;;;;15.21;37.88;100733.88;5039534;28;20090;-70
2021/04/11 11:13:32;;;;;;;6.78;3.55;;;;;;;15.28;40.51;100742.88;5023826;28;20323;-70
2021/04/11 11:16:07;;;;;;;5.43;3.17;;;;;;;15.23;38.86;100733.69;5031903;28;20318;-70
2021/04/11 11:18:32;;;;;;;6.07;3.30;;;;;;;15.25;38.00;100731.69;5042917;28;20033;-71
2021/04/11 11:21:03;;;;;;;8.38;3.30;;;;;;;15.24;38.57;100728.19;5041785;28;20055;-70
2021/04/11 11:23:56;;;;;;;9.98;3.35;;;;;;;15.73;36.57;100719.31;5024999;28;20030;-70
2021/04/11 11:26:50;;;;;;;8.27;2.72;;;;;;;15.90;34.48;100718.25;5022866;28;20034;-70
2021/04/11 11:29:44;;;;;;;5.88;3.15;;;;;;;15.82;36.66;100721.78;5024471;28;20029;-70
2021/04/11 11:32:28;;;;;;;4.35;2.90;;;;;;;15.42;38.03;100717.31;5025593;28;20046;-71
2021/04/11 11:35:03;;;;;;;7.88;3.00;;;;;;;15.61;36.15;100701.00;5024892;28;20029;-70
2021/04/11 11:37:34;;;;;;;6.00;3.00;;;;;;;15.70;35.10;100703.63;5039821;28;20337;-70
2021/04/11 11:40:00;;;;;;;3.58;2.25;;;;;;;15.90;33.36;100703.06;5024147;28;20018;-70
2021/04/11 11:42:32;;;;;;;5.70;3.20;;;;;;;15.58;36.12;100705.81;5036884;28;20087;-70
2021/04/11 11:45:07;;;;;;;5.22;2.70;;;;;;;15.60;35.44;100696.66;5038230;28;20025;-70
2021/04/11 11:47:56;;;;;;;5.93;2.78;;;;;;;15.44;34.16;100693.97;5024562;28;20065;-70
2021/04/11 11:50:28;;;;;;;8.70;3.20;;;;;;;15.69;32.79;100677.94;5028656;28;20025;-71
2021/04/11 11:53:01;;;;;;;10.45;4.50;;;;;;;15.83;33.96;100670.03;5039217;28;20046;-71
2021/04/11 11:55:37;;;;;;;4.65;2.92;;;;;;;15.92;36.42;100668.16;5041014;28;20040;-70
2021/04/11 11:58:37;;;;;;;5.18;3.20;;;;;;;16.00;35.58;100667.28;5041802;28;20203;-70
2021/04/11 12:01:11;;;;;;;8.63;2.95;;;;;;;16.04;33.71;100665.94;5034324;28;20045;-70
2021/04/11 12:03:37;;;;;;;9.18;2.95;;;;;;;15.94;32.35;100661.66;5029530;28;20077;-70
2021/04/11 12:06:26;;;;;;;5.35;2.50;;;;;;;15.77;35.49;100660.06;5023472;28;20069;-70